sensor_id;sensor_type;location;lat;lon;timestamp;P1;durP1;ratioP1;P2;durP2;ratioP2
6483;SDS011;3275;52.376;9.694;2024-01-10T00:01:00;11.95;;;5.13;;
6483;SDS011;3275;52.376;9.694;2024-01-10T00:03:27;11.20;;;5.07;;
6483;SDS011;3275;52.376;9.694;2024-01-10T00:05:54;10.15;;;4.32;;
6483;SDS011;3275;52.376;9.694;2024-01-10T00:08:22;7.45;;;4.25;;
6483;SDS011;3275;52.376;9.694;2024-01-10T00:10:49;9.82;;;5.28;;
6483;SDS011;3275;52.376;9.694;2024-01-10T00:13:16;6.82;;;4.80;;
6483;SDS011;3275;52.376;9.694;2024-01-10T00:15:43;11.93;;;5.45;;
6483;SDS011;3275;52.376;9.694;2024-01-10T00:18:09;12.90;;;5.97;;
6483;SDS011;3275;52.376;9.694;2024-01-10T00:20:36;10.60;;;4.78;;
6483;SDS011;3275;52.376;9.694;2024-01-10T00:23:03;7.78;;;5.13;;
6483;SDS011;3275;52.376;9.694;2024-01-10T00:25:31;11.45;;;5.28;;
6483;SDS011;3275;52.376;9.694;2024-01-10T00:27:57;9.30;;;5.30;;
6483;SDS011;3275;52.376;9.694;2024-01-10T00:30:25;10.07;;;5.13;;
6483;SDS011;3275;52.376;9.694;2024-01-10T00:32:51;11.77;;;4.85;;
6483;SDS011;3275;52.376;9.694;2024-01-10T00:35:18;9.35;;;5.53;;
6483;SDS011;3275;52.376;9.694;2024-01-10T00:37:45;10.45;;;6.95;;
6483;SDS011;3275;52.376;9.694;2024-01-10T00:40:12;8.60;;;4.70;;
6483;SDS011;3275;52.376;9.694;2024-01-10T00:42:40;9.38;;;4.88;;
6483;SDS011;3275;52.376;9.694;2024-01-10T00:45:06;9.13;;;4.57;;
6483;SDS011;3275;52.376;9.694;2024-01-10T00:47:33;13.57;;;4.95;;
6483;SDS011;3275;52.376;9.694;2024-01-10T00:50:00;12.13;;;4.80;;
6483;SDS011;3275;52.376;9.694;2024-01-10T00:52:26;9.55;;;4.55;;
6483;SDS011;3275;52.376;9.694;2024-01-10T00:54:53;11.20;;;4.55;;
6483;SDS011;3275;52.376;9.694;2024-01-10T00:57:19;14.18;;;4.38;;
6483;SDS011;3275;52.376;9.694;2024-01-10T00:59:47;10.02;;;6.28;;
6483;SDS011;3275;52.376;9.694;2024-01-10T01:02:14;10.27;;;5.93;;
6483;SDS011;3275;52.376;9.694;2024-01-10T01:04:41;13.20;;;6.18;;
6483;SDS011;3275;52.376;9.694;2024-01-10T01:07:07;15.13;;;6.35;;
6483;SDS011;3275;52.376;9.694;2024-01-10T01:09:34;7.38;;;4.05;;
6483;SDS011;3275;52.376;9.694;2024-01-10T01:12:01;9.48;;;5.93;;
6483;SDS011;3275;52.376;9.694;2024-01-10T01:14:27;11.68;;;5.63;;
6483;SDS011;3275;52.376;9.694;2024-01-10T01:16:55;12.15;;;5.53;;
6483;SDS011;3275;52.376;9.694;2024-01-10T01:19:22;10.82;;;5.72;;
6483;SDS011;3275;52.376;9.694;2024-01-10T01:21:48;10.68;;;5.03;;
6483;SDS011;3275;52.376;9.694;2024-01-10T01:24:15;13.75;;;6.38;;
6483;SDS011;3275;52.376;9.694;2024-01-10T01:26:45;7.05;;;4.65;;
6483;SDS011;3275;52.376;9.694;2024-01-10T01:29:11;7.35;;;5.55;;
6483;SDS011;3275;52.376;9.694;2024-01-10T01:31:38;11.13;;;5.68;;
6483;SDS011;3275;52.376;9.694;2024-01-10T01:34:06;15.50;;;6.45;;
6483;SDS011;3275;52.376;9.694;2024-01-10T01:36:32;8.05;;;4.80;;
6483;SDS011;3275;52.376;9.694;2024-01-10T01:38:59;8.38;;;6.05;;
6483;SDS011;3275;52.376;9.694;2024-01-10T01:41:25;11.30;;;6.10;;
6483;SDS011;3275;52.376;9.694;2024-01-10T01:43:52;7.10;;;4.40;;
6483;SDS011;3275;52.376;9.694;2024-01-10T01:46:18;13.35;;;5.47;;
6483;SDS011;3275;52.376;9.694;2024-01-10T01:48:45;16.25;;;5.20;;
6483;SDS011;3275;52.376;9.694;2024-01-10T01:51:14;12.88;;;5.80;;
6483;SDS011;3275;52.376;9.694;2024-01-10T01:53:41;20.42;;;6.45;;
6483;SDS011;3275;52.376;9.694;2024-01-10T01:56:10;9.25;;;5.55;;
6483;SDS011;3275;52.376;9.694;2024-01-10T01:58:38;14.75;;;5.68;;
6483;SDS011;3275;52.376;9.694;2024-01-10T02:01:05;16.38;;;7.28;;
6483;SDS011;3275;52.376;9.694;2024-01-10T02:03:33;11.75;;;6.05;;
6483;SDS011;3275;52.376;9.694;2024-01-10T02:06:00;10.23;;;4.90;;
6483;SDS011;3275;52.376;9.694;2024-01-10T02:08:29;7.40;;;4.93;;
6483;SDS011;3275;52.376;9.694;2024-01-10T02:10:57;7.65;;;4.97;;
6483;SDS011;3275;52.376;9.694;2024-01-10T02:13:23;13.77;;;5.13;;
6483;SDS011;3275;52.376;9.694;2024-01-10T02:15:50;12.20;;;5.65;;
6483;SDS011;3275;52.376;9.694;2024-01-10T02:18:17;11.68;;;6.38;;
6483;SDS011;3275;52.376;9.694;2024-01-10T02:20:44;14.27;;;5.50;;
6483;SDS011;3275;52.376;9.694;2024-01-10T02:23:12;11.85;;;5.07;;
6483;SDS011;3275;52.376;9.694;2024-01-10T02:25:40;14.95;;;6.53;;
6483;SDS011;3275;52.376;9.694;2024-01-10T02:28:07;15.63;;;5.72;;
6483;SDS011;3275;52.376;9.694;2024-01-10T02:30:35;14.60;;;6.53;;
6483;SDS011;3275;52.376;9.694;2024-01-10T02:33:02;11.40;;;5.82;;
6483;SDS011;3275;52.376;9.694;2024-01-10T02:35:28;16.48;;;7.07;;
6483;SDS011;3275;52.376;9.694;2024-01-10T02:37:57;15.00;;;6.68;;
6483;SDS011;3275;52.376;9.694;2024-01-10T02:40:24;11.90;;;5.00;;
6483;SDS011;3275;52.376;9.694;2024-01-10T02:42:52;12.52;;;6.15;;
6483;SDS011;3275;52.376;9.694;2024-01-10T02:45:19;12.80;;;5.90;;
6483;SDS011;3275;52.376;9.694;2024-01-10T02:47:45;17.48;;;7.53;;
6483;SDS011;3275;52.376;9.694;2024-01-10T02:50:12;10.25;;;6.10;;
6483;SDS011;3275;52.376;9.694;2024-01-10T02:52:39;15.13;;;6.78;;
6483;SDS011;3275;52.376;9.694;2024-01-10T02:55:05;17.30;;;7.90;;
6483;SDS011;3275;52.376;9.694;2024-01-10T02:57:32;14.02;;;7.00;;
6483;SDS011;3275;52.376;9.694;2024-01-10T08:30:44;21.92;;;10.70;;
6483;SDS011;3275;52.376;9.694;2024-01-10T08:33:10;31.27;;;11.68;;
6483;SDS011;3275;52.376;9.694;2024-01-10T08:35:37;31.15;;;12.38;;
6483;SDS011;3275;52.376;9.694;2024-01-10T08:38:04;29.75;;;12.35;;
6483;SDS011;3275;52.376;9.694;2024-01-10T08:40:32;30.15;;;13.00;;
6483;SDS011;3275;52.376;9.694;2024-01-10T08:42:59;31.42;;;11.77;;
6483;SDS011;3275;52.376;9.694;2024-01-10T08:45:26;22.65;;;9.27;;
6483;SDS011;3275;52.376;9.694;2024-01-10T08:47:54;27.30;;;11.98;;
6483;SDS011;3275;52.376;9.694;2024-01-10T08:50:22;23.75;;;10.57;;
6483;SDS011;3275;52.376;9.694;2024-01-10T08:52:49;28.80;;;11.00;;
6483;SDS011;3275;52.376;9.694;2024-01-10T08:55:16;26.05;;;11.23;;
6483;SDS011;3275;52.376;9.694;2024-01-10T08:57:42;27.48;;;12.40;;
6483;SDS011;3275;52.376;9.694;2024-01-10T09:00:09;26.83;;;12.82;;
6483;SDS011;3275;52.376;9.694;2024-01-10T09:02:37;35.33;;;13.63;;
6483;SDS011;3275;52.376;9.694;2024-01-10T09:05:06;20.98;;;10.07;;
6483;SDS011;3275;52.376;9.694;2024-01-10T09:07:35;33.92;;;14.50;;
6483;SDS011;3275;52.376;9.694;2024-01-10T09:10:02;38.78;;;12.98;;
6483;SDS011;3275;52.376;9.694;2024-01-10T09:12:30;26.73;;;11.68;;
6483;SDS011;3275;52.376;9.694;2024-01-10T09:14:57;30.48;;;13.43;;
6483;SDS011;3275;52.376;9.694;2024-01-10T09:17:23;24.23;;;11.95;;
6483;SDS011;3275;52.376;9.694;2024-01-10T09:19:50;21.65;;;11.40;;
6483;SDS011;3275;52.376;9.694;2024-01-10T09:22:17;32.45;;;12.38;;
6483;SDS011;3275;52.376;9.694;2024-01-10T09:24:44;27.75;;;12.30;;
6483;SDS011;3275;52.376;9.694;2024-01-10T09:27:11;27.90;;;12.00;;
6483;SDS011;3275;52.376;9.694;2024-01-10T09:29:37;30.67;;;12.65;;
6483;SDS011;3275;52.376;9.694;2024-01-10T09:32:04;27.08;;;12.32;;
6483;SDS011;3275;52.376;9.694;2024-01-10T09:34:31;29.90;;;12.77;;
6483;SDS011;3275;52.376;9.694;2024-01-10T09:36:58;27.48;;;13.68;;
6483;SDS011;3275;52.376;9.694;2024-01-10T09:39:27;28.55;;;13.23;;
6483;SDS011;3275;52.376;9.694;2024-01-10T09:41:55;26.27;;;11.45;;
6483;SDS011;3275;52.376;9.694;2024-01-10T09:44:23;22.58;;;11.90;;
6483;SDS011;3275;52.376;9.694;2024-01-10T09:46:51;33.53;;;14.32;;
6483;SDS011;3275;52.376;9.694;2024-01-10T09:49:18;33.10;;;13.73;;
6483;SDS011;3275;52.376;9.694;2024-01-10T09:51:47;33.53;;;13.90;;
6483;SDS011;3275;52.376;9.694;2024-01-10T09:54:15;37.00;;;13.07;;
6483;SDS011;3275;52.376;9.694;2024-01-10T09:56:45;36.20;;;13.13;;
6483;SDS011;3275;52.376;9.694;2024-01-10T09:59:13;28.17;;;14.75;;
6483;SDS011;3275;52.376;9.694;2024-01-10T10:01:40;29.15;;;11.88;;
6483;SDS011;3275;52.376;9.694;2024-01-10T10:04:09;34.17;;;12.65;;
6483;SDS011;3275;52.376;9.694;2024-01-10T10:06:38;25.73;;;11.02;;
6483;SDS011;3275;52.376;9.694;2024-01-10T10:09:05;28.17;;;13.00;;
6483;SDS011;3275;52.376;9.694;2024-01-10T10:11:33;38.90;;;13.52;;
6483;SDS011;3275;52.376;9.694;2024-01-10T10:14:10;28.33;;;11.20;;
6483;SDS011;3275;52.376;9.694;2024-01-10T10:16:40;31.58;;;11.27;;
6483;SDS011;3275;52.376;9.694;2024-01-10T10:19:07;21.25;;;11.40;;
6483;SDS011;3275;52.376;9.694;2024-01-10T10:21:36;24.58;;;12.15;;
6483;SDS011;3275;52.376;9.694;2024-01-10T10:24:03;42.17;;;11.63;;
6483;SDS011;3275;52.376;9.694;2024-01-10T10:26:31;29.08;;;12.10;;
6483;SDS011;3275;52.376;9.694;2024-01-10T10:28:59;25.02;;;12.20;;
6483;SDS011;3275;52.376;9.694;2024-01-10T10:31:28;25.08;;;12.93;;
6483;SDS011;3275;52.376;9.694;2024-01-10T10:33:56;30.38;;;12.40;;
6483;SDS011;3275;52.376;9.694;2024-01-10T10:36:25;24.60;;;10.85;;
6483;SDS011;3275;52.376;9.694;2024-01-10T10:38:52;36.08;;;14.70;;
6483;SDS011;3275;52.376;9.694;2024-01-10T10:41:18;30.30;;;13.77;;
6483;SDS011;3275;52.376;9.694;2024-01-10T10:43:45;24.67;;;13.50;;
6483;SDS011;3275;52.376;9.694;2024-01-10T10:46:13;22.23;;;11.15;;
6483;SDS011;3275;52.376;9.694;2024-01-10T10:48:41;21.25;;;12.18;;
6483;SDS011;3275;52.376;9.694;2024-01-10T10:51:09;30.95;;;12.15;;
6483;SDS011;3275;52.376;9.694;2024-01-10T10:53:36;41.05;;;13.18;;
6483;SDS011;3275;52.376;9.694;2024-01-10T10:56:05;24.58;;;11.85;;
6483;SDS011;3275;52.376;9.694;2024-01-10T10:58:33;25.17;;;12.48;;
6483;SDS011;3275;52.376;9.694;2024-01-10T11:01:01;34.75;;;14.13;;
6483;SDS011;3275;52.376;9.694;2024-01-10T11:03:31;34.67;;;12.88;;
6483;SDS011;3275;52.376;9.694;2024-01-10T11:06:02;34.72;;;14.55;;
6483;SDS011;3275;52.376;9.694;2024-01-10T11:08:30;23.77;;;10.40;;
6483;SDS011;3275;52.376;9.694;2024-01-10T11:11:01;25.77;;;10.43;;
6483;SDS011;3275;52.376;9.694;2024-01-10T11:13:45;34.40;;;13.27;;
6483;SDS011;3275;52.376;9.694;2024-01-10T11:16:30;25.98;;;11.90;;
6483;SDS011;3275;52.376;9.694;2024-01-10T11:19:17;37.80;;;12.27;;
6483;SDS011;3275;52.376;9.694;2024-01-10T11:22:07;34.05;;;11.90;;
6483;SDS011;3275;52.376;9.694;2024-01-10T11:24:43;32.00;;;12.07;;
6483;SDS011;3275;52.376;9.694;2024-01-10T11:27:12;39.45;;;12.13;;
6483;SDS011;3275;52.376;9.694;2024-01-10T11:29:39;33.95;;;13.38;;
6483;SDS011;3275;52.376;9.694;2024-01-10T11:32:07;45.42;;;15.38;;
6483;SDS011;3275;52.376;9.694;2024-01-10T11:34:47;24.83;;;11.88;;
6483;SDS011;3275;52.376;9.694;2024-01-10T11:37:17;32.10;;;13.50;;
6483;SDS011;3275;52.376;9.694;2024-01-10T11:39:44;29.65;;;12.75;;
6483;SDS011;3275;52.376;9.694;2024-01-10T11:42:11;30.77;;;13.43;;
6483;SDS011;3275;52.376;9.694;2024-01-10T11:44:46;26.10;;;11.00;;
6483;SDS011;3275;52.376;9.694;2024-01-10T11:47:14;30.17;;;11.48;;
6483;SDS011;3275;52.376;9.694;2024-01-10T11:49:51;32.67;;;12.93;;
6483;SDS011;3275;52.376;9.694;2024-01-10T11:52:21;35.33;;;13.00;;
6483;SDS011;3275;52.376;9.694;2024-01-10T11:54:49;36.47;;;14.55;;
6483;SDS011;3275;52.376;9.694;2024-01-10T11:57:19;37.60;;;13.77;;
6483;SDS011;3275;52.376;9.694;2024-01-10T11:59:47;30.65;;;11.68;;
6483;SDS011;3275;52.376;9.694;2024-01-10T12:02:16;32.10;;;11.85;;
6483;SDS011;3275;52.376;9.694;2024-01-10T12:04:44;30.17;;;13.13;;
6483;SDS011;3275;52.376;9.694;2024-01-10T12:07:11;27.17;;;13.25;;
6483;SDS011;3275;52.376;9.694;2024-01-10T12:09:39;33.40;;;14.02;;
6483;SDS011;3275;52.376;9.694;2024-01-10T12:12:06;33.17;;;15.60;;
6483;SDS011;3275;52.376;9.694;2024-01-10T12:14:33;28.02;;;13.07;;
6483;SDS011;3275;52.376;9.694;2024-01-10T12:17:01;36.93;;;12.83;;
6483;SDS011;3275;52.376;9.694;2024-01-10T12:19:29;34.97;;;14.23;;
6483;SDS011;3275;52.376;9.694;2024-01-10T12:21:56;33.42;;;14.93;;
6483;SDS011;3275;52.376;9.694;2024-01-10T12:24:23;33.13;;;13.35;;
6483;SDS011;3275;52.376;9.694;2024-01-10T12:26:54;29.52;;;12.90;;
6483;SDS011;3275;52.376;9.694;2024-01-10T12:29:21;33.55;;;14.27;;
6483;SDS011;3275;52.376;9.694;2024-01-10T12:31:50;26.70;;;12.25;;
6483;SDS011;3275;52.376;9.694;2024-01-10T12:34:17;28.67;;;13.00;;
6483;SDS011;3275;52.376;9.694;2024-01-10T12:36:43;28.80;;;12.63;;
6483;SDS011;3275;52.376;9.694;2024-01-10T12:39:12;26.77;;;13.15;;
6483;SDS011;3275;52.376;9.694;2024-01-10T12:41:39;46.83;;;11.90;;
6483;SDS011;3275;52.376;9.694;2024-01-10T12:44:08;29.45;;;10.48;;
6483;SDS011;3275;52.376;9.694;2024-01-10T12:46:48;26.15;;;11.75;;
6483;SDS011;3275;52.376;9.694;2024-01-10T12:49:16;22.48;;;12.10;;
6483;SDS011;3275;52.376;9.694;2024-01-10T12:51:43;28.65;;;12.30;;
6483;SDS011;3275;52.376;9.694;2024-01-10T12:54:09;24.10;;;11.30;;
6483;SDS011;3275;52.376;9.694;2024-01-10T12:56:36;27.67;;;10.85;;
6483;SDS011;3275;52.376;9.694;2024-01-10T12:59:02;25.98;;;11.23;;
6483;SDS011;3275;52.376;9.694;2024-01-10T13:01:30;38.55;;;13.90;;
6483;SDS011;3275;52.376;9.694;2024-01-10T13:03:57;30.35;;;12.93;;
6483;SDS011;3275;52.376;9.694;2024-01-10T13:06:24;38.47;;;13.07;;
6483;SDS011;3275;52.376;9.694;2024-01-10T13:08:50;38.13;;;13.10;;
6483;SDS011;3275;52.376;9.694;2024-01-10T13:11:17;29.50;;;12.18;;
6483;SDS011;3275;52.376;9.694;2024-01-10T13:13:45;33.17;;;12.95;;
6483;SDS011;3275;52.376;9.694;2024-01-10T13:16:11;29.70;;;13.15;;
6483;SDS011;3275;52.376;9.694;2024-01-10T13:18:39;41.72;;;14.05;;
6483;SDS011;3275;52.376;9.694;2024-01-10T13:21:06;38.70;;;13.63;;
6483;SDS011;3275;52.376;9.694;2024-01-10T13:23:33;30.73;;;13.95;;
6483;SDS011;3275;52.376;9.694;2024-01-10T13:26:01;32.72;;;12.10;;
6483;SDS011;3275;52.376;9.694;2024-01-10T13:28:27;36.33;;;13.27;;
6483;SDS011;3275;52.376;9.694;2024-01-10T13:30:54;35.30;;;14.00;;
6483;SDS011;3275;52.376;9.694;2024-01-10T13:33:22;39.72;;;11.93;;
6483;SDS011;3275;52.376;9.694;2024-01-10T13:35:51;39.88;;;14.77;;
6483;SDS011;3275;52.376;9.694;2024-01-10T13:38:18;34.13;;;13.07;;
6483;SDS011;3275;52.376;9.694;2024-01-10T13:40:45;30.85;;;12.63;;
6483;SDS011;3275;52.376;9.694;2024-01-10T13:43:11;27.38;;;10.85;;
6483;SDS011;3275;52.376;9.694;2024-01-10T13:45:38;26.10;;;11.18;;
6483;SDS011;3275;52.376;9.694;2024-01-10T13:48:05;36.45;;;12.00;;
6483;SDS011;3275;52.376;9.694;2024-01-10T13:50:32;28.13;;;12.65;;
6483;SDS011;3275;52.376;9.694;2024-01-10T13:53:00;37.05;;;13.40;;
6483;SDS011;3275;52.376;9.694;2024-01-10T13:55:27;39.15;;;13.23;;
6483;SDS011;3275;52.376;9.694;2024-01-10T13:57:54;31.83;;;12.98;;
6483;SDS011;3275;52.376;9.694;2024-01-10T14:00:21;30.48;;;12.68;;
6483;SDS011;3275;52.376;9.694;2024-01-10T14:02:48;36.15;;;15.30;;
6483;SDS011;3275;52.376;9.694;2024-01-10T14:05:15;28.08;;;12.38;;
6483;SDS011;3275;52.376;9.694;2024-01-10T14:07:41;32.60;;;12.60;;
6483;SDS011;3275;52.376;9.694;2024-01-10T14:10:12;35.67;;;11.75;;
6483;SDS011;3275;52.376;9.694;2024-01-10T14:12:39;23.55;;;11.95;;
6483;SDS011;3275;52.376;9.694;2024-01-10T14:15:06;29.55;;;12.00;;
6483;SDS011;3275;52.376;9.694;2024-01-10T14:17:34;30.17;;;11.20;;
6483;SDS011;3275;52.376;9.694;2024-01-10T14:20:01;26.83;;;11.57;;
6483;SDS011;3275;52.376;9.694;2024-01-10T14:22:28;24.38;;;11.35;;
6483;SDS011;3275;52.376;9.694;2024-01-10T14:24:55;29.38;;;11.35;;
6483;SDS011;3275;52.376;9.694;2024-01-10T14:27:23;31.73;;;12.25;;
6483;SDS011;3275;52.376;9.694;2024-01-10T14:29:50;24.77;;;11.10;;
6483;SDS011;3275;52.376;9.694;2024-01-10T14:32:17;31.52;;;11.75;;
6483;SDS011;3275;52.376;9.694;2024-01-10T14:34:43;30.10;;;11.57;;
6483;SDS011;3275;52.376;9.694;2024-01-10T14:37:11;26.17;;;11.43;;
6483;SDS011;3275;52.376;9.694;2024-01-10T14:39:37;35.78;;;13.65;;
6483;SDS011;3275;52.376;9.694;2024-01-10T14:42:05;29.05;;;11.75;;
6483;SDS011;3275;52.376;9.694;2024-01-10T14:44:35;31.35;;;11.60;;
6483;SDS011;3275;52.376;9.694;2024-01-10T14:47:02;28.27;;;13.82;;
6483;SDS011;3275;52.376;9.694;2024-01-10T14:49:29;23.35;;;10.52;;
6483;SDS011;3275;52.376;9.694;2024-01-10T14:51:56;25.52;;;12.32;;
6483;SDS011;3275;52.376;9.694;2024-01-10T14:54:23;29.67;;;11.65;;
6483;SDS011;3275;52.376;9.694;2024-01-10T14:56:49;26.15;;;10.73;;
6483;SDS011;3275;52.376;9.694;2024-01-10T14:59:17;23.92;;;10.23;;
6483;SDS011;3275;52.376;9.694;2024-01-10T15:01:45;33.10;;;11.57;;
6483;SDS011;3275;52.376;9.694;2024-01-10T15:04:12;29.15;;;10.30;;
6483;SDS011;3275;52.376;9.694;2024-01-10T15:06:43;23.90;;;12.00;;
6483;SDS011;3275;52.376;9.694;2024-01-10T15:09:10;27.60;;;11.80;;
6483;SDS011;3275;52.376;9.694;2024-01-10T15:11:37;25.38;;;11.45;;
6483;SDS011;3275;52.376;9.694;2024-01-10T15:14:04;27.15;;;9.80;;
6483;SDS011;3275;52.376;9.694;2024-01-10T15:16:31;34.03;;;11.40;;
6483;SDS011;3275;52.376;9.694;2024-01-10T15:18:59;27.83;;;10.35;;
6483;SDS011;3275;52.376;9.694;2024-01-10T15:21:26;33.38;;;11.85;;
6483;SDS011;3275;52.376;9.694;2024-01-10T15:23:52;24.15;;;10.05;;
6483;SDS011;3275;52.376;9.694;2024-01-10T15:26:19;27.88;;;10.77;;
6483;SDS011;3275;52.376;9.694;2024-01-10T15:28:46;22.73;;;11.23;;
6483;SDS011;3275;52.376;9.694;2024-01-10T15:31:14;31.77;;;12.80;;
6483;SDS011;3275;52.376;9.694;2024-01-10T15:33:41;29.17;;;11.57;;
6483;SDS011;3275;52.376;9.694;2024-01-10T15:36:09;31.98;;;12.48;;
6483;SDS011;3275;52.376;9.694;2024-01-10T15:38:38;25.23;;;10.35;;
6483;SDS011;3275;52.376;9.694;2024-01-10T15:41:05;24.63;;;10.68;;
6483;SDS011;3275;52.376;9.694;2024-01-10T15:43:32;26.42;;;10.10;;
6483;SDS011;3275;52.376;9.694;2024-01-10T15:45:59;25.40;;;10.40;;
6483;SDS011;3275;52.376;9.694;2024-01-10T15:48:25;23.38;;;9.80;;
6483;SDS011;3275;52.376;9.694;2024-01-10T15:50:52;28.80;;;10.55;;
6483;SDS011;3275;52.376;9.694;2024-01-10T15:53:21;18.85;;;9.13;;
6483;SDS011;3275;52.376;9.694;2024-01-10T15:55:47;26.92;;;11.13;;
6483;SDS011;3275;52.376;9.694;2024-01-10T15:58:15;29.92;;;11.60;;
6483;SDS011;3275;52.376;9.694;2024-01-10T16:00:42;33.03;;;11.50;;
6483;SDS011;3275;52.376;9.694;2024-01-10T16:03:09;24.98;;;11.18;;
6483;SDS011;3275;52.376;9.694;2024-01-10T16:05:35;25.65;;;9.73;;
6483;SDS011;3275;52.376;9.694;2024-01-10T16:08:02;28.63;;;10.80;;
6483;SDS011;3275;52.376;9.694;2024-01-10T16:10:30;23.23;;;10.07;;
6483;SDS011;3275;52.376;9.694;2024-01-10T16:12:57;29.80;;;10.85;;
6483;SDS011;3275;52.376;9.694;2024-01-10T16:15:24;24.17;;;10.90;;
6483;SDS011;3275;52.376;9.694;2024-01-10T16:17:50;31.00;;;11.30;;
6483;SDS011;3275;52.376;9.694;2024-01-10T16:20:17;19.13;;;10.48;;
6483;SDS011;3275;52.376;9.694;2024-01-10T16:22:43;31.50;;;11.93;;
6483;SDS011;3275;52.376;9.694;2024-01-10T16:25:10;29.88;;;11.63;;
6483;SDS011;3275;52.376;9.694;2024-01-10T16:27:38;23.48;;;10.85;;
6483;SDS011;3275;52.376;9.694;2024-01-10T16:30:05;19.60;;;8.57;;
6483;SDS011;3275;52.376;9.694;2024-01-10T16:32:32;23.80;;;9.98;;
6483;SDS011;3275;52.376;9.694;2024-01-10T16:34:59;22.85;;;9.55;;
6483;SDS011;3275;52.376;9.694;2024-01-10T16:37:25;22.45;;;9.10;;
6483;SDS011;3275;52.376;9.694;2024-01-10T16:39:52;24.52;;;9.35;;
6483;SDS011;3275;52.376;9.694;2024-01-10T16:42:19;27.10;;;11.80;;
6483;SDS011;3275;52.376;9.694;2024-01-10T16:44:48;32.45;;;11.00;;
6483;SDS011;3275;52.376;9.694;2024-01-10T16:47:14;18.95;;;9.70;;
6483;SDS011;3275;52.376;9.694;2024-01-10T16:49:41;32.45;;;10.55;;
6483;SDS011;3275;52.376;9.694;2024-01-10T16:52:08;26.70;;;10.15;;
6483;SDS011;3275;52.376;9.694;2024-01-10T16:54:34;27.08;;;10.15;;
6483;SDS011;3275;52.376;9.694;2024-01-10T16:57:01;22.35;;;9.82;;
6483;SDS011;3275;52.376;9.694;2024-01-10T16:59:28;24.38;;;10.20;;
6483;SDS011;3275;52.376;9.694;2024-01-10T17:01:56;24.13;;;11.65;;
6483;SDS011;3275;52.376;9.694;2024-01-10T17:04:26;24.10;;;10.90;;
6483;SDS011;3275;52.376;9.694;2024-01-10T17:06:53;22.23;;;8.98;;
6483;SDS011;3275;52.376;9.694;2024-01-10T17:09:24;25.05;;;10.60;;
6483;SDS011;3275;52.376;9.694;2024-01-10T17:11:51;25.13;;;11.00;;
6483;SDS011;3275;52.376;9.694;2024-01-10T17:14:18;39.47;;;12.82;;
6483;SDS011;3275;52.376;9.694;2024-01-10T17:16:45;25.42;;;11.07;;
6483;SDS011;3275;52.376;9.694;2024-01-10T17:19:12;27.27;;;10.93;;
6483;SDS011;3275;52.376;9.694;2024-01-10T17:21:39;29.63;;;12.20;;
6483;SDS011;3275;52.376;9.694;2024-01-10T17:24:06;29.10;;;11.50;;
6483;SDS011;3275;52.376;9.694;2024-01-10T17:26:33;25.45;;;10.73;;
6483;SDS011;3275;52.376;9.694;2024-01-10T17:28:59;24.83;;;10.45;;
6483;SDS011;3275;52.376;9.694;2024-01-10T17:31:27;23.10;;;10.73;;
6483;SDS011;3275;52.376;9.694;2024-01-10T17:33:54;28.77;;;11.80;;
6483;SDS011;3275;52.376;9.694;2024-01-10T17:36:22;22.80;;;11.63;;
6483;SDS011;3275;52.376;9.694;2024-01-10T17:38:49;25.30;;;10.73;;
6483;SDS011;3275;52.376;9.694;2024-01-10T17:41:16;22.83;;;10.10;;
6483;SDS011;3275;52.376;9.694;2024-01-10T17:43:43;22.27;;;9.93;;
6483;SDS011;3275;52.376;9.694;2024-01-10T17:46:10;25.05;;;9.68;;
6483;SDS011;3275;52.376;9.694;2024-01-10T17:48:36;28.23;;;12.40;;
6483;SDS011;3275;52.376;9.694;2024-01-10T17:51:03;23.85;;;9.73;;
6483;SDS011;3275;52.376;9.694;2024-01-10T17:53:31;33.60;;;11.52;;
6483;SDS011;3275;52.376;9.694;2024-01-10T17:55:58;28.10;;;11.73;;
6483;SDS011;3275;52.376;9.694;2024-01-10T17:58:24;27.65;;;10.75;;
6483;SDS011;3275;52.376;9.694;2024-01-10T18:00:51;25.48;;;11.75;;
6483;SDS011;3275;52.376;9.694;2024-01-10T18:03:20;24.73;;;11.02;;
6483;SDS011;3275;52.376;9.694;2024-01-10T18:05:47;26.30;;;12.30;;
6483;SDS011;3275;52.376;9.694;2024-01-10T18:08:13;26.27;;;10.98;;
6483;SDS011;3275;52.376;9.694;2024-01-10T18:10:41;18.88;;;8.13;;
6483;SDS011;3275;52.376;9.694;2024-01-10T18:13:10;21.10;;;9.07;;
6483;SDS011;3275;52.376;9.694;2024-01-10T18:15:37;23.73;;;10.60;;
6483;SDS011;3275;52.376;9.694;2024-01-10T18:18:04;18.88;;;9.25;;
6483;SDS011;3275;52.376;9.694;2024-01-10T18:20:32;20.30;;;10.55;;
6483;SDS011;3275;52.376;9.694;2024-01-10T18:22:59;28.02;;;10.60;;
6483;SDS011;3275;52.376;9.694;2024-01-10T18:25:28;26.83;;;12.02;;
6483;SDS011;3275;52.376;9.694;2024-01-10T18:27:59;23.10;;;10.75;;
6483;SDS011;3275;52.376;9.694;2024-01-10T18:30:26;31.45;;;12.45;;
6483;SDS011;3275;52.376;9.694;2024-01-10T18:32:53;25.83;;;11.30;;
6483;SDS011;3275;52.376;9.694;2024-01-10T18:35:20;29.60;;;10.68;;
6483;SDS011;3275;52.376;9.694;2024-01-10T18:37:47;29.25;;;10.05;;
6483;SDS011;3275;52.376;9.694;2024-01-10T18:40:14;33.47;;;10.77;;
6483;SDS011;3275;52.376;9.694;2024-01-10T18:42:41;32.10;;;11.38;;
6483;SDS011;3275;52.376;9.694;2024-01-10T18:45:09;38.88;;;11.77;;
6483;SDS011;3275;52.376;9.694;2024-01-10T18:47:36;29.23;;;11.48;;
6483;SDS011;3275;52.376;9.694;2024-01-10T18:50:03;25.10;;;11.10;;
6483;SDS011;3275;52.376;9.694;2024-01-10T18:52:30;27.10;;;11.95;;
6483;SDS011;3275;52.376;9.694;2024-01-10T18:54:57;28.40;;;12.05;;
6483;SDS011;3275;52.376;9.694;2024-01-10T18:57:23;25.98;;;11.82;;
6483;SDS011;3275;52.376;9.694;2024-01-10T18:59:51;26.77;;;10.02;;
6483;SDS011;3275;52.376;9.694;2024-01-10T19:02:19;25.38;;;9.75;;
6483;SDS011;3275;52.376;9.694;2024-01-10T19:04:46;43.53;;;13.00;;
6483;SDS011;3275;52.376;9.694;2024-01-10T19:07:13;21.27;;;9.48;;
6483;SDS011;3275;52.376;9.694;2024-01-10T19:09:40;28.42;;;12.80;;
6483;SDS011;3275;52.376;9.694;2024-01-10T19:12:07;40.17;;;12.70;;
6483;SDS011;3275;52.376;9.694;2024-01-10T19:14:34;44.30;;;11.70;;
6483;SDS011;3275;52.376;9.694;2024-01-10T19:17:01;29.77;;;13.10;;
6483;SDS011;3275;52.376;9.694;2024-01-10T19:19:29;25.58;;;10.25;;
6483;SDS011;3275;52.376;9.694;2024-01-10T19:22:01;31.55;;;12.20;;
6483;SDS011;3275;52.376;9.694;2024-01-10T19:24:29;25.88;;;11.73;;
6483;SDS011;3275;52.376;9.694;2024-01-10T19:26:56;24.38;;;12.15;;
6483;SDS011;3275;52.376;9.694;2024-01-10T19:29:22;23.25;;;10.38;;
6483;SDS011;3275;52.376;9.694;2024-01-10T19:31:49;23.25;;;11.48;;
6483;SDS011;3275;52.376;9.694;2024-01-10T19:34:16;28.15;;;11.13;;
6483;SDS011;3275;52.376;9.694;2024-01-10T19:36:44;22.70;;;12.40;;
6483;SDS011;3275;52.376;9.694;2024-01-10T19:39:12;26.77;;;11.15;;
6483;SDS011;3275;52.376;9.694;2024-01-10T19:41:39;32.00;;;13.10;;
6483;SDS011;3275;52.376;9.694;2024-01-10T19:44:05;33.33;;;12.90;;
6483;SDS011;3275;52.376;9.694;2024-01-10T19:46:32;23.70;;;11.57;;
6483;SDS011;3275;52.376;9.694;2024-01-10T19:48:58;31.42;;;12.05;;
6483;SDS011;3275;52.376;9.694;2024-01-10T19:51:25;33.70;;;12.85;;
6483;SDS011;3275;52.376;9.694;2024-01-10T19:53:53;31.40;;;12.45;;
6483;SDS011;3275;52.376;9.694;2024-01-10T19:56:20;27.25;;;11.27;;
